Time;durP1;ratioP1;P1;durP2;ratioP2;P2;SDS_P1;SDS_P2;PMS_P1;PMS_P2;Temp;Humidity;BMP_temperature;BMP_pressure;BME280_temperature;BME280_humidity;BME280_pressure;Samples;Min_cycle;Max_cycle;Signal;HPM_P1;HPM_P2
2023/02/11 08:48:36;;;;;;;29.97;18.13;;;;;;;5.75;77.64;100699.06;5170311;27;20980;-78
2023/02/11 08:51:08;;;;;;;28.27;17.93;;;;;;;6.40;75.31;100734.97;5170975;27;38769;-79
2023/02/11 08:53:36;;;;;;;28.17;19.53;;;;;;;6.87;70.63;100735.09;5151080;27;41969;-78
2023/02/11 08:56:04;;;;;;;27.13;17.83;;;;;;;7.39;67.82;100759.59;5147167;27;44250;-79
2023/02/11 08:58:32;;;;;;;26.93;18.20;;;;;;;7.85;66.59;100761.31;5132258;27;40983;-79
2023/02/11 09:01:00;;;;;;;25.53;17.87;;;;;;;8.29;64.00;100761.19;5155469;27;39983;-79
2023/02/11 09:03:28;;;;;;;27.10;18.43;;;;;;;8.50;62.48;100746.66;5170062;27;40590;-78
2023/02/11 09:05:57;;;;;;;25.37;17.87;;;;;;;8.86;61.13;100768.69;5155865;27;43633;-78
2023/02/11 09:08:25;;;;;;;30.07;19.20;;;;;;;9.05;60.36;100778.75;5153150;27;41624;-78
2023/02/11 09:10:56;;;;;;;27.87;18.67;;;;;;;9.07;59.90;100782.25;5177493;27;40079;-78
2023/02/11 09:13:23;;;;;;;27.17;17.23;;;;;;;8.91;58.61;100784.41;5169870;27;41901;-79
2023/02/11 09:15:51;;;;;;;23.37;17.23;;;;;;;8.88;59.19;100787.13;5146654;27;41615;-79
2023/02/11 09:18:18;;;;;;;23.40;16.93;;;;;;;9.12;59.58;100781.22;5172423;27;41360;-79
2023/02/11 09:20:46;;;;;;;26.70;18.67;;;;;;;9.65;58.25;100766.53;5158931;27;40927;-79
2023/02/11 09:23:16;;;;;;;27.73;19.30;;;;;;;10.14;56.73;100759.81;5168296;27;40967;-79
2023/02/11 09:25:44;;;;;;;23.30;17.63;;;;;;;10.48;56.03;100764.97;5182834;27;43504;-79
2023/02/11 09:28:12;;;;;;;28.13;18.10;;;;;;;10.67;55.36;100778.50;5190178;27;40980;-78
2023/02/11 09:30:39;;;;;;;24.73;17.73;;;;;;;10.60;54.69;100769.03;5190768;27;39167;-79
2023/02/11 09:33:07;;;;;;;26.07;18.53;;;;;;;10.54;54.07;100782.44;5172900;27;41269;-78
2023/02/11 09:35:35;;;;;;;24.90;18.10;;;;;;;10.40;53.98;100764.34;5172866;27;41574;-78
2023/02/11 09:38:03;;;;;;;26.70;18.50;;;;;;;10.43;53.72;100772.19;5190502;27;40890;-78
2023/02/11 09:40:33;;;;;;;22.07;16.93;;;;;;;10.36;54.42;100776.84;5173281;27;38511;-78
2023/02/11 09:43:05;;;;;;;24.27;17.30;;;;;;;10.22;54.37;100776.38;5173099;27;41745;-79
2023/02/11 09:45:33;;;;;;;25.03;18.07;;;;;;;10.03;54.39;100756.63;5188751;27;42600;-79
2023/02/11 09:48:04;;;;;;;22.87;16.83;;;;;;;10.12;54.95;100761.66;5172537;27;41273;-77
2023/02/11 09:50:35;;;;;;;23.83;17.70;;;;;;;10.09;54.75;100767.91;5190597;27;39254;-79
2023/02/11 09:53:07;;;;;;;24.47;17.57;;;;;;;10.06;55.06;100761.81;5173146;27;41791;-78
2023/02/11 09:55:41;;;;;;;23.70;17.53;;;;;;;10.03;54.80;100761.91;5190732;27;42189;-78
2023/02/11 09:58:14;;;;;;;25.00;17.60;;;;;;;9.97;55.24;100751.53;5168700;27;42212;-79
2023/02/11 10:00:47;;;;;;;24.87;17.13;;;;;;;10.11;55.24;100759.06;5176639;27;40209;-79
2023/02/11 10:03:43;;;;;;;23.17;16.40;;;;;;;10.12;54.63;100751.06;5158932;27;41739;-78
2023/02/11 10:06:36;;;;;;;23.77;16.90;;;;;;;10.15;54.35;100743.00;5173290;27;42816;-79
2023/02/11 10:09:16;;;;;;;23.30;15.73;;;;;;;10.34;54.86;100748.66;5172830;27;42080;-79
2023/02/11 10:11:52;;;;;;;21.60;16.43;;;;;;;10.66;53.94;100771.47;5191518;27;39931;-78
2023/02/11 10:14:38;;;;;;;24.47;17.30;;;;;;;10.80;53.13;100771.88;5173156;27;42685;-79
2023/02/11 10:17:18;;;;;;;21.30;15.87;;;;;;;10.85;54.04;100764.66;5175632;27;41643;-78
2023/02/11 10:20:00;;;;;;;25.80;17.47;;;;;;;11.13;53.31;100776.03;5172835;27;42272;-79
2023/02/11 10:22:33;;;;;;;23.07;16.33;;;;;;;11.34;52.64;100794.81;5174545;27;39938;-78
2023/02/11 10:25:06;;;;;;;22.50;15.17;;;;;;;11.30;52.88;100798.47;5158433;27;41126;-78
2023/02/11 10:27:36;;;;;;;23.80;16.27;;;;;;;11.36;52.63;100803.59;5157831;27;42345;-79
2023/02/11 10:30:11;;;;;;;21.60;15.40;;;;;;;11.51;52.70;100808.34;5158400;27;43138;-79
2023/02/11 10:32:44;;;;;;;23.17;16.17;;;;;;;11.59;52.71;100806.31;5157964;27;39225;-78
2023/02/11 10:35:16;;;;;;;19.07;14.30;;;;;;;11.57;52.49;100800.16;5175931;27;42304;-78
2023/02/11 10:37:45;;;;;;;19.63;15.33;;;;;;;11.44;52.38;100806.84;5174939;27;43757;-78
2023/02/11 10:40:15;;;;;;;23.23;15.53;;;;;;;11.13;52.67;100786.66;5175938;27;40995;-78
2023/02/11 10:42:47;;;;;;;28.83;17.47;;;;;;;11.26;52.95;100804.78;5159015;27;40521;-79
2023/02/11 10:45:22;;;;;;;21.07;15.27;;;;;;;11.25;53.02;100800.44;5158749;27;40258;-80
2023/02/11 10:47:50;;;;;;;19.90;14.87;;;;;;;11.19;52.78;100797.97;5175871;27;42875;-79
2023/02/11 10:50:21;;;;;;;21.70;16.53;;;;;;;11.12;53.07;100795.56;5175745;27;43340;-78
2023/02/11 10:52:49;;;;;;;22.67;16.03;;;;;;;11.26;52.87;100796.84;5176397;27;40068;-79
2023/02/11 10:55:19;;;;;;;22.00;15.83;;;;;;;11.45;52.68;100797.97;5158383;27;42922;-80
2023/02/11 10:57:55;;;;;;;21.03;15.00;;;;;;;11.68;52.74;100784.72;5177243;27;43640;-78
2023/02/11 11:00:36;;;;;;;23.80;16.47;;;;;;;11.96;51.95;100797.03;5175776;27;41220;-79
2023/02/11 11:03:07;;;;;;;22.33;15.77;;;;;;;12.13;51.26;100797.25;5176223;27;41090;-78
2023/02/11 11:05:37;;;;;;;23.43;14.87;;;;;;;12.09;51.30;100796.50;5175876;27;42077;-78
2023/02/11 11:08:08;;;;;;;21.13;15.73;;;;;;;11.96;51.45;100789.06;5176778;27;43733;-81
2023/02/11 11:10:42;;;;;;;21.27;15.57;;;;;;;11.81;51.82;100799.31;5171155;27;42094;-79
2023/02/11 11:13:41;;;;;;;23.50;16.63;;;;;;;11.55;51.82;100795.84;5192431;27;40915;-78
2023/02/11 11:16:24;;;;;;;23.37;15.07;;;;;;;11.29;52.40;100796.75;5172015;27;41841;-78
2023/02/11 11:18:54;;;;;;;24.20;15.53;;;;;;;11.11;52.59;100793.81;5158119;27;43386;-78
2023/02/11 11:21:24;;;;;;;26.73;17.40;;;;;;;11.00;52.98;100801.25;5157575;27;42572;-78
2023/02/11 11:23:57;;;;;;;22.27;15.47;;;;;;;10.94;53.55;100785.56;5158135;27;39175;-78
2023/02/11 11:26:27;;;;;;;21.80;15.47;;;;;;;10.86;53.30;100779.66;5157724;27;43298;-80
2023/02/11 11:29:01;;;;;;;20.93;15.07;;;;;;;10.70;53.78;100757.19;5175268;27;41813;-79
2023/02/11 11:31:33;;;;;;;23.17;16.40;;;;;;;10.77;53.64;100778.13;5172823;27;41903;-81
2023/02/11 11:34:05;;;;;;;23.27;17.00;;;;;;;10.76;54.10;100775.53;5145203;27;40326;-78
2023/02/11 11:36:36;;;;;;;23.70;17.43;;;;;;;10.58;54.35;100739.06;5113870;27;41847;-78
2023/02/11 11:39:18;;;;;;;23.93;16.53;;;;;;;10.66;54.62;100760.84;5147552;27;42568;-78
2023/02/11 11:41:51;;;;;;;23.53;16.77;;;;;;;10.77;54.34;100769.31;5134306;27;41019;-80
2023/02/11 11:44:29;;;;;;;22.50;16.23;;;;;;;10.75;54.87;100758.81;5160909;27;38829;-81
2023/02/11 11:47:22;;;;;;;22.40;16.13;;;;;;;10.82;54.49;100763.88;5132011;27;40824;-82
2023/02/11 11:50:05;;;;;;;24.87;16.33;;;;;;;10.68;54.56;100741.34;5151832;27;44506;-80
2023/02/11 11:52:39;;;;;;;24.03;15.60;;;;;;;10.84;54.27;100762.06;5127022;27;42672;-80
2023/02/11 11:55:19;;;;;;;24.27;16.97;;;;;;;10.86;54.46;100749.63;5153873;27;40427;-79
2023/02/11 11:57:47;;;;;;;21.47;15.73;;;;;;;10.94;54.32;100761.69;5133145;27;41169;-80
2023/02/11 12:00:35;;;;;;;22.27;17.17;;;;;;;10.95;53.84;100750.16;5162487;27;43788;-80
2023/02/11 12:03:44;;;;;;;22.50;16.03;;;;;;;11.06;53.66;100763.94;5149533;27;43163;-80
2023/02/11 12:06:26;;;;;;;21.07;16.27;;;;;;;11.03;53.64;100764.03;5136695;27;41956;-79
2023/02/11 12:09:06;;;;;;;25.33;16.60;;;;;;;11.03;53.85;100757.84;5174265;27;42721;-79
2023/02/11 12:11:47;;;;;;;24.97;16.73;;;;;;;10.98;53.92;100742.13;5131602;27;42205;-79
2023/02/11 12:14:26;;;;;;;22.00;16.57;;;;;;;11.09;53.93;100753.22;5152784;27;43111;-79
2023/02/11 12:17:03;;;;;;;25.20;16.37;;;;;;;11.11;53.39;100764.66;5148680;27;38811;-79
2023/02/11 12:19:48;;;;;;;23.63;16.60;;;;;;;11.05;53.65;100761.31;5188764;27;41705;-80
2023/02/11 12:22:31;;;;;;;18.63;13.90;;;;;;;11.06;53.57;100760.41;5150950;27;42792;-79
2023/02/11 12:25:09;;;;;;;21.10;15.70;;;;;;;11.07;54.01;100756.84;5148544;27;42335;-80
2023/02/11 12:27:48;;;;;;;21.97;14.13;;;;;;;11.02;54.09;100751.69;5151712;27;39890;-79
2023/02/11 12:30:28;;;;;;;23.30;16.30;;;;;;;11.03;54.22;100742.81;5151740;27;41808;-79
2023/02/11 12:33:09;;;;;;;23.63;15.93;;;;;;;11.02;54.28;100743.72;5146792;27;42367;-78
2023/02/11 12:35:48;;;;;;;21.93;14.57;;;;;;;10.95;54.31;100744.88;5130627;27;42949;-79
2023/02/11 12:38:34;;;;;;;21.17;14.80;;;;;;;10.91;54.70;100745.88;5132197;27;41523;-79
2023/02/11 12:41:15;;;;;;;21.27;15.50;;;;;;;10.88;54.53;100738.03;5129355;27;41438;-79
2023/02/11 12:43:43;;;;;;;22.10;15.63;;;;;;;10.88;54.44;100737.19;5132439;27;42779;-80
2023/02/11 12:46:34;;;;;;;23.03;15.93;;;;;;;10.97;54.72;100743.03;5114789;27;41035;-79
2023/02/11 12:49:24;;;;;;;23.00;16.20;;;;;;;10.97;54.84;100743.03;5115177;27;41747;-79
2023/02/11 12:52:04;;;;;;;21.37;15.03;;;;;;;10.96;55.28;100741.31;5131557;27;41696;-78
2023/02/11 12:54:37;;;;;;;21.13;14.57;;;;;;;10.92;54.94;100739.66;5115190;27;43588;-81
2023/02/11 12:57:13;;;;;;;22.50;14.83;;;;;;;10.84;55.13;100736.41;5147636;27;43456;-82
2023/02/11 12:59:49;;;;;;;21.97;14.93;;;;;;;10.68;55.38;100709.56;5115142;27;40321;-80
2023/02/11 13:02:27;;;;;;;22.77;14.17;;;;;;;10.68;55.69;100720.16;5131842;27;42086;-80
2023/02/11 13:05:02;;;;;;;22.80;15.63;;;;;;;10.78;55.77;100716.25;5131981;27;44524;-80
2023/02/11 13:07:33;;;;;;;19.50;13.23;;;;;;;10.82;55.51;100695.84;5131994;27;43079;-80
2023/02/11 13:10:06;;;;;;;21.03;14.83;;;;;;;11.02;55.65;100698.66;5132069;27;41074;-80
2023/02/11 13:15:22;;;;;;;20.93;15.00;;;;;;;11.25;55.44;100702.31;5131963;27;44004;-80
2023/02/11 13:17:59;;;;;;;20.13;14.20;;;;;;;11.33;54.94;100708.19;5131750;27;42577;-80
2023/02/11 13:20:40;;;;;;;21.37;14.47;;;;;;;11.46;54.71;100704.16;5129244;27;40983;-81
2023/02/11 13:23:16;;;;;;;19.67;15.50;;;;;;;11.56;54.58;100694.94;5132782;27;42776;-81
2023/02/11 13:25:52;;;;;;;21.33;14.67;;;;;;;11.60;54.73;100685.09;5114563;27;44444;-78
2023/02/11 13:28:36;;;;;;;19.87;14.47;;;;;;;11.60;54.55;100690.41;5132964;27;42106;-79
2023/02/11 13:31:06;;;;;;;20.33;13.47;;;;;;;11.59;54.50;100688.66;5128722;27;39725;-80
2023/02/11 13:33:38;;;;;;;22.97;14.83;;;;;;;11.57;54.32;100694.03;5132635;27;43322;-80
2023/02/11 13:36:29;;;;;;;21.13;14.60;;;;;;;11.61;54.51;100681.50;5117588;27;41758;-79
2023/02/11 13:39:04;;;;;;;21.43;15.07;;;;;;;11.56;53.94;100679.03;5135095;27;42685;-82
2023/02/11 13:41:38;;;;;;;19.33;13.03;;;;;;;11.56;54.07;100673.72;5118156;27;40189;-82
2023/02/11 13:44:22;;;;;;;20.90;14.00;;;;;;;11.56;54.15;100663.09;5117989;27;42195;-80
2023/02/11 13:46:57;;;;;;;18.73;14.13;;;;;;;11.77;54.10;100687.97;5132496;27;42811;-80
2023/02/11 13:49:28;;;;;;;21.77;14.63;;;;;;;11.74;53.77;100694.28;5117769;27;43050;-82
2023/02/11 13:52:01;;;;;;;20.23;14.30;;;;;;;11.67;53.99;100687.44;5135562;27;40508;-83
2023/02/11 13:54:35;;;;;;;18.67;13.97;;;;;;;11.61;53.99;100695.66;5131729;27;41684;-79
2023/02/11 13:57:25;;;;;;;22.43;14.70;;;;;;;11.48;54.50;100702.34;5134753;27;44320;-82
2023/02/11 13:59:54;;;;;;;20.63;14.00;;;;;;;11.25;54.69;100689.03;5131967;27;41878;-83
2023/02/11 14:11:47;;;;;;;20.07;13.97;;;;;;;10.65;56.73;100687.56;5131690;27;43644;-80
2023/02/11 14:14:22;;;;;;;21.60;14.70;;;;;;;10.56;57.07;100688.75;5134769;27;39941;-81
2023/02/11 14:17:20;;;;;;;21.63;14.50;;;;;;;10.48;57.24;100696.09;5117945;27;40571;-80
2023/02/11 14:19:49;;;;;;;19.53;13.93;;;;;;;10.39;57.61;100686.66;5130756;27;42842;-80
2023/02/11 14:22:22;;;;;;;20.20;15.03;;;;;;;10.29;58.09;100679.94;5134593;27;42137;-80
2023/02/11 14:24:55;;;;;;;20.00;14.33;;;;;;;10.19;58.27;100678.50;5132145;27;40124;-81
2023/02/11 14:27:30;;;;;;;22.80;14.57;;;;;;;10.08;58.95;100675.28;5117175;27;42992;-81
2023/02/11 14:30:18;;;;;;;21.17;15.33;;;;;;;9.91;59.20;100661.69;5117052;27;41963;-79
2023/02/11 14:33:02;;;;;;;21.00;13.93;;;;;;;9.76;59.49;100636.59;5117133;27;41138;-80
2023/02/11 14:35:38;;;;;;;18.87;13.47;;;;;;;9.92;59.59;100669.59;5117499;27;39262;-80
2023/02/11 14:38:20;;;;;;;21.30;14.00;;;;;;;9.84;60.15;100666.34;5117817;27;40410;-80
2023/02/11 14:40:58;;;;;;;20.27;14.47;;;;;;;9.96;60.00;100692.41;5134046;27;44492;-81
2023/02/11 14:43:30;;;;;;;22.00;13.73;;;;;;;9.98;59.76;100700.31;5132257;27;42888;-80
2023/02/11 14:46:01;;;;;;;23.80;14.70;;;;;;;9.91;60.18;100698.75;5134647;27;40059;-81
2023/02/11 14:48:31;;;;;;;16.43;12.23;;;;;;;9.83;60.25;100690.19;5134203;27;42337;-81
2023/02/11 14:51:03;;;;;;;18.73;13.57;;;;;;;9.94;60.07;100717.19;5134533;27;43201;-80
2023/02/11 14:53:33;;;;;;;18.93;12.93;;;;;;;9.87;59.88;100708.59;5134181;27;42498;-80
2023/02/11 14:56:02;;;;;;;15.83;11.63;;;;;;;9.95;59.92;100716.28;5116939;27;38566;-80
2023/02/11 14:58:32;;;;;;;20.83;14.60;;;;;;;9.82;60.58;100705.19;5134241;27;40796;-79
2023/02/11 15:01:05;;;;;;;18.10;13.37;;;;;;;9.79;60.71;100709.72;5116806;27;42879;-81
2023/02/11 15:03:35;;;;;;;21.33;13.27;;;;;;;9.65;61.01;100703.03;5133904;27;41446;-81
2023/02/11 15:06:07;;;;;;;16.77;11.60;;;;;;;9.58;61.14;100696.22;5116413;27;38656;-81
2023/02/11 15:08:37;;;;;;;21.07;13.63;;;;;;;9.57;61.58;100705.06;5131751;27;42775;-80
2023/02/11 15:11:13;;;;;;;17.90;12.30;;;;;;;9.53;61.89;100697.25;5116352;27;41941;-80
2023/02/11 15:13:46;;;;;;;19.33;12.63;;;;;;;9.61;61.51;100717.28;5116739;27;42767;-81
2023/02/11 15:16:18;;;;;;;16.77;12.50;;;;;;;9.53;61.77;100708.69;5133569;27;39475;-80
2023/02/11 15:18:51;;;;;;;18.87;12.80;;;;;;;9.61;62.24;100721.72;5116272;27;40689;-80
2023/02/11 15:21:24;;;;;;;16.50;12.20;;;;;;;9.57;62.09;100720.94;5131845;27;42722;-80
2023/02/11 15:23:57;;;;;;;18.73;13.17;;;;;;;9.43;62.46;100701.94;5116423;27;42844;-80
2023/02/11 15:26:26;;;;;;;18.00;13.20;;;;;;;9.48;62.50;100715.03;5116291;27;39751;-81
2023/02/11 15:28:55;;;;;;;18.47;13.20;;;;;;;9.41;62.42;100716.97;5133719;27;42713;-80
2023/02/11 15:31:24;;;;;;;17.63;13.83;;;;;;;9.32;62.57;100714.59;5116332;27;41694;-80
2023/02/11 15:33:52;;;;;;;17.03;12.80;;;;;;;9.32;62.61;100725.16;5133453;27;42621;-80
2023/02/11 15:36:27;;;;;;;20.63;13.70;;;;;;;9.10;62.55;100693.16;5133510;27;39806;-81
2023/02/11 15:39:29;;;;;;;20.10;13.40;;;;;;;9.21;62.66;100721.94;5133260;27;43198;-81
2023/02/11 15:42:16;;;;;;;21.50;14.67;;;;;;;9.15;63.18;100711.56;5134452;27;43035;-82
2023/02/11 15:44:44;;;;;;;19.30;13.30;;;;;;;9.11;63.43;100721.34;5130404;27;42589;-80
2023/02/11 15:47:17;;;;;;;21.43;14.13;;;;;;;9.08;63.61;100716.13;5132941;27;40029;-80
2023/02/11 15:49:45;;;;;;;18.77;13.63;;;;;;;9.05;63.51;100720.63;5133172;27;43997;-80
2023/02/11 15:52:15;;;;;;;20.00;13.73;;;;;;;9.04;63.56;100718.88;5115979;27;41674;-81
2023/02/11 15:54:46;;;;;;;18.93;14.10;;;;;;;8.93;63.77;100705.97;5115861;27;40688;-80
2023/02/11 15:57:17;;;;;;;23.30;15.67;;;;;;;8.96;63.83;100706.75;5132945;27;39978;-80
2023/02/11 15:59:48;;;;;;;23.83;16.00;;;;;;;8.94;64.16;100713.84;5150961;27;41126;-80
2023/02/11 16:02:20;;;;;;;19.73;15.13;;;;;;;8.89;65.00;100707.84;5131919;27;43724;-80
2023/02/11 16:04:51;;;;;;;21.80;15.67;;;;;;;8.85;65.28;100711.44;5130339;27;42213;-79
2023/02/11 16:07:38;;;;;;;20.23;15.07;;;;;;;8.81;65.42;100712.44;5115683;27;38931;-80
2023/02/11 16:10:17;;;;;;;22.80;15.40;;;;;;;8.75;65.45;100709.09;5115305;27;42497;-79
2023/02/11 16:12:54;;;;;;;23.03;15.43;;;;;;;8.60;66.15;100683.94;5132540;27;42688;-79
2023/02/11 16:15:43;;;;;;;26.00;16.73;;;;;;;8.69;66.32;100711.88;5115707;27;41267;-78
2023/02/11 16:18:26;;;;;;;25.83;16.40;;;;;;;8.65;66.45;100713.75;5116060;27;39970;-79
2023/02/11 16:20:54;;;;;;;24.10;16.83;;;;;;;8.54;66.73;100699.91;5133310;27;40792;-79
2023/02/11 16:23:26;;;;;;;20.83;15.60;;;;;;;8.53;66.65;100708.75;5134651;27;42714;-79
2023/02/11 16:26:00;;;;;;;21.07;15.10;;;;;;;8.52;66.54;100704.38;5142692;27;42771;-80
2023/02/11 16:28:29;;;;;;;22.20;14.07;;;;;;;8.42;66.50;100692.28;5142767;27;41317;-78
2023/02/11 16:30:58;;;;;;;20.60;14.93;;;;;;;8.42;66.65;100700.22;5127969;27;40471;-79
2023/02/11 16:33:25;;;;;;;23.23;17.03;;;;;;;8.35;66.85;100693.34;5130080;27;44521;-79
2023/02/11 16:35:53;;;;;;;23.23;14.83;;;;;;;8.45;66.91;100729.19;5144516;27;42413;-79
2023/02/11 16:38:21;;;;;;;23.17;16.13;;;;;;;8.43;67.03;100725.72;5117089;27;41288;-79
2023/02/11 16:40:49;;;;;;;21.13;15.80;;;;;;;8.42;66.77;100724.84;5132720;27;41983;-79
2023/02/11 16:43:20;;;;;;;25.43;17.10;;;;;;;8.38;67.05;100730.25;5115002;27;41824;-79
2023/02/11 16:45:49;;;;;;;26.73;17.43;;;;;;;8.36;66.75;100739.97;5115513;27;42307;-79
2023/02/11 16:48:19;;;;;;;24.57;16.13;;;;;;;8.27;67.28;100728.69;5133576;27;40521;-79
2023/02/11 16:50:49;;;;;;;23.67;16.20;;;;;;;8.32;67.74;100740.94;5115238;27;42032;-80
2023/02/11 16:53:22;;;;;;;22.13;14.90;;;;;;;8.29;67.90;100737.44;5115295;27;44475;-79
2023/02/11 16:55:50;;;;;;;23.07;16.93;;;;;;;8.24;68.11;100747.25;5129579;27;42389;-79
2023/02/11 16:58:19;;;;;;;24.13;16.73;;;;;;;8.23;68.30;100739.34;5132238;27;40121;-78
2023/02/11 17:00:49;;;;;;;25.97;16.87;;;;;;;8.18;68.18;100744.72;5132220;27;42662;-78
2023/02/11 17:03:21;;;;;;;24.37;17.00;;;;;;;8.07;68.30;100730.03;5115089;27;43071;-80
2023/02/11 17:05:50;;;;;;;24.13;16.40;;;;;;;8.12;68.18;100747.53;5132668;27;40820;-79
2023/02/11 17:08:18;;;;;;;23.10;15.90;;;;;;;8.09;68.23;100742.31;5132871;27;39950;-79
2023/02/11 17:10:46;;;;;;;26.83;18.27;;;;;;;8.13;68.55;100756.31;5118389;27;43556;-79
2023/02/11 17:13:13;;;;;;;27.00;16.97;;;;;;;8.13;69.03;100751.91;5135659;27;43734;-79
2023/02/11 17:15:41;;;;;;;26.77;17.50;;;;;;;7.96;69.14;100735.56;5136701;27;42030;-79
2023/02/11 17:18:13;;;;;;;25.70;17.43;;;;;;;8.07;69.31;100753.78;5135608;27;38706;-80
2023/02/11 17:20:41;;;;;;;26.70;17.20;;;;;;;8.05;69.35;100760.88;5118475;27;43270;-79
2023/02/11 17:23:09;;;;;;;25.13;17.03;;;;;;;7.94;69.82;100750.53;5152641;27;42764;-81
2023/02/11 17:25:37;;;;;;;24.53;16.30;;;;;;;8.01;69.48;100754.81;5135616;27;42314;-80
2023/02/11 17:28:06;;;;;;;23.40;17.00;;;;;;;8.00;69.66;100758.34;5135409;27;38950;-80
2023/02/11 17:30:34;;;;;;;28.90;17.43;;;;;;;7.98;69.77;100765.41;5135314;27;41717;-79
2023/02/11 17:33:02;;;;;;;27.73;16.57;;;;;;;7.85;69.60;100742.84;5135480;27;42570;-79
2023/02/11 17:35:31;;;;;;;24.80;17.40;;;;;;;7.93;69.80;100777.81;5135595;27;43153;-80
2023/02/11 17:38:00;;;;;;;25.90;16.43;;;;;;;7.82;69.78;100753.44;5118393;27;39186;-78
2023/02/11 17:40:28;;;;;;;28.43;16.70;;;;;;;7.95;69.73;100778.66;5135095;27;41766;-79
2023/02/11 17:42:55;;;;;;;24.73;16.90;;;;;;;7.69;69.32;100744.03;5135415;27;41642;-80
2023/02/11 17:45:23;;;;;;;25.57;16.83;;;;;;;7.96;69.76;100790.97;5152735;27;42358;-79
2023/02/11 17:47:51;;;;;;;26.97;17.40;;;;;;;7.94;69.75;100790.13;5134713;27;41449;-80
2023/02/11 17:50:19;;;;;;;23.90;16.37;;;;;;;7.93;69.62;100791.88;5135318;27;41811;-80
2023/02/11 17:52:48;;;;;;;24.60;17.77;;;;;;;7.92;69.76;100786.63;5135020;27;42005;-79
2023/02/11 17:55:16;;;;;;;27.33;17.50;;;;;;;7.88;70.03;100785.84;5117705;27;41148;-78
2023/02/11 17:57:44;;;;;;;24.70;17.80;;;;;;;7.78;70.17;100772.91;5136120;27;40685;-79
2023/02/11 18:00:13;;;;;;;27.47;17.77;;;;;;;7.86;70.40;100787.66;5117904;27;40533;-80
2023/02/11 18:02:41;;;;;;;28.13;17.57;;;;;;;7.77;70.28;100777.31;5135947;27;42818;-80
2023/02/11 18:05:09;;;;;;;31.70;19.23;;;;;;;7.83;70.49;100789.47;5135074;27;41369;-79
2023/02/11 18:07:37;;;;;;;28.73;19.27;;;;;;;7.67;70.38;100764.31;5134834;27;40192;-78
2023/02/11 18:10:09;;;;;;;27.50;18.93;;;;;;;7.80;70.30;100789.53;5135002;27;41815;-79
2023/02/11 18:12:37;;;;;;;35.73;22.90;;;;;;;7.73;70.16;100787.94;5117460;27;44313;-80
2023/02/11 18:15:05;;;;;;;27.57;19.10;;;;;;;7.79;70.27;100801.00;5136025;27;42326;-80
2023/02/11 18:17:33;;;;;;;30.57;20.93;;;;;;;7.78;70.39;100791.34;5152213;27;40996;-79
2023/02/11 18:20:02;;;;;;;38.73;29.23;;;;;;;7.76;71.04;100787.88;5135368;27;41829;-78
2023/02/11 18:22:35;;;;;;;42.30;27.10;;;;;;;7.73;71.16;100790.56;5117322;27;42004;-78
2023/02/11 18:25:03;;;;;;;39.60;26.30;;;;;;;7.70;71.29;100786.22;5134444;27;40800;-80
2023/02/11 18:27:32;;;;;;;35.00;24.10;;;;;;;7.53;71.29;100764.59;5135703;27;40134;-81
2023/02/11 18:30:00;;;;;;;34.00;24.10;;;;;;;7.68;71.04;100797.69;5134476;27;43164;-79
2023/02/11 18:32:28;;;;;;;39.30;25.47;;;;;;;7.68;71.63;100790.66;5117258;27;42803;-79
2023/02/11 18:34:56;;;;;;;41.67;28.20;;;;;;;7.67;71.26;100785.41;5135385;27;42274;-81
2023/02/11 18:37:24;;;;;;;40.37;27.20;;;;;;;7.66;71.69;100789.84;5134296;27;41349;-80
2023/02/11 18:39:52;;;;;;;29.33;21.43;;;;;;;7.63;71.80;100796.94;5116935;27;42126;-81
2023/02/11 18:42:19;;;;;;;49.47;34.37;;;;;;;7.57;71.99;100793.50;5117263;27;42822;-81
2023/02/11 18:44:49;;;;;;;48.97;34.17;;;;;;;7.56;72.16;100783.84;5134605;27;43533;-81
2023/02/11 18:47:16;;;;;;;54.50;32.97;;;;;;;7.51;72.50;100777.81;5133964;27;41309;-81
2023/02/11 18:49:44;;;;;;;52.27;32.23;;;;;;;7.56;72.66;100789.13;5116900;27;40999;-80
2023/02/11 18:52:12;;;;;;;50.97;34.00;;;;;;;7.54;72.25;100784.81;5116808;27;42994;-81
2023/02/11 18:54:40;;;;;;;44.10;28.63;;;;;;;7.52;72.55;100784.81;5116688;27;42564;-80
2023/02/11 18:57:08;;;;;;;43.20;31.63;;;;;;;7.50;72.38;100794.53;5116732;27;38838;-81
2023/02/11 18:59:36;;;;;;;36.30;23.67;;;;;;;7.49;72.66;100790.16;5135115;27;42835;-81
2023/02/11 19:02:06;;;;;;;81.73;50.33;;;;;;;7.39;72.58;100780.69;5133561;27;42955;-81
2023/02/11 19:04:36;;;;;;;53.83;36.67;;;;;;;7.47;72.50;100802.50;5134536;27;43583;-81
2023/02/11 19:07:04;;;;;;;50.87;38.20;;;;;;;7.34;72.82;100782.53;5116501;27;38942;-81
2023/02/11 19:09:31;;;;;;;42.00;30.93;;;;;;;7.45;72.37;100806.03;5133792;27;43002;-83
2023/02/11 19:12:00;;;;;;;40.20;26.50;;;;;;;7.44;72.89;100805.16;5134683;27;42868;-80
2023/02/11 19:14:32;;;;;;;35.87;23.87;;;;;;;7.44;72.81;100812.22;5133679;27;42074;-81
2023/02/11 19:17:02;;;;;;;42.63;30.93;;;;;;;7.47;72.99;100810.41;5133354;27;39952;-81
2023/02/11 19:19:33;;;;;;;46.27;33.77;;;;;;;7.48;72.35;100817.41;5134315;27;41639;-81
2023/02/11 19:22:02;;;;;;;44.77;29.80;;;;;;;7.46;72.60;100819.19;5133394;27;41698;-81
2023/02/11 19:24:30;;;;;;;48.07;34.47;;;;;;;7.47;72.60;100815.66;5133284;27;42377;-79
2023/02/11 19:27:00;;;;;;;46.30;33.17;;;;;;;7.44;72.59;100807.81;5133319;27;41269;-80
2023/02/11 19:29:30;;;;;;;34.67;23.20;;;;;;;7.39;72.60;100796.50;5133238;27;41449;-81
2023/02/11 19:31:58;;;;;;;27.60;21.10;;;;;;;7.47;72.88;100809.53;5114743;27;41994;-81
2023/02/11 19:34:26;;;;;;;31.67;21.37;;;;;;;7.14;72.83;100764.44;5133318;27;43697;-82
2023/02/11 19:36:58;;;;;;;27.27;19.13;;;;;;;7.01;73.34;100751.53;5134283;27;40073;-80
2023/02/11 19:39:26;;;;;;;27.30;19.73;;;;;;;7.40;73.29;100829.88;5116319;27;41827;-80
